LFOP/URO METAR and TAF weather

Enter ICAO airport designator
Station Type Date Time Source
LFOP METAR 2021/05/14 12:00 UTC NOAA

LFOP 141200Z AUTO 33010KT 9999 FEW012/// BKN035/// OVC042/// ///TCU 11/09 Q1008 TEMPO 3000 SHRA BKN005 BKN017CB


Station Type Date Time Source
LFOP Decoded METAR 2021/05/14 12:00 UTC NOAA

Rouen, France (LFOP) 49-23N 001-11E 157M
May 14, 2021 - 08:00 AM EDT / 2021.05.14 1200 UTC
Wind: from the NNW (330 degrees) at 12 MPH (10 KT):0
Visibility: greater than 7 mile(s):0
Sky conditions: overcast
Weather: Cumulonimbus clouds, towering cumulus clouds observed
Temperature: 51 F (11 C)
Dew Point: 48 F (9 C)
Relative Humidity: 87%
Pressure (altimeter): 29.77 in. Hg (1008 hPa)
ob: LFOP 141200Z AUTO 33010KT 9999 FEW012/// BKN035/// OVC042/// ///TCU 11/09 Q1008 TEMPO 3000 SHRA BKN005 BKN017CB
cycle: 12

Station Type Date Time Source
LFOP TAF 2021/05/14 12:45 UTC NOAA

TAF LFOP 141100Z 1412/1512 30007KT 9999 SCT015 BKN035
TEMPO 1412/1414 3000 SHRA BKN005 BKN017CB
BECMG 1420/1423 19010KT
TEMPO 1504/1508 4000 RA BKN005 OVC015
BECMG 1507/1509 26012KT BKN025
TEMPO 1509/1512 4000 SHRA BKN025TCU

Example: see airport list